createdAt,value
2023-04-04T00:00:42.539Z,47.79
2023-04-04T00:03:10.462Z,47.61
2023-04-04T00:05:38.411Z,46.77
2023-04-04T00:08:06.630Z,47.12
2023-04-04T00:10:35.728Z,47.69
2023-04-04T00:13:05.522Z,47.38
2023-04-04T00:15:34.589Z,47.24
2023-04-04T00:18:02.562Z,47.56
2023-04-04T00:20:30.557Z,46.74
2023-04-04T00:22:58.905Z,47.19
2023-04-04T00:25:26.627Z,47.02
2023-04-04T00:27:56.150Z,47.50
2023-04-04T00:30:23.885Z,47.95
2023-04-04T00:32:51.798Z,49.01
2023-04-04T00:35:19.812Z,47.73
2023-04-04T00:37:47.556Z,47.35
2023-04-04T00:40:15.718Z,47.79
2023-04-04T00:42:43.503Z,47.49
2023-04-04T00:45:12.947Z,47.17
2023-04-04T00:47:44.394Z,47.61
2023-04-04T00:50:12.664Z,47.60
2023-04-04T00:52:41.042Z,47.54
2023-04-04T00:55:09.997Z,47.95
2023-04-04T00:57:38.005Z,47.83
2023-04-04T01:00:07.868Z,47.12
2023-04-04T01:02:37.225Z,47.44
2023-04-04T01:05:05.514Z,46.43
2023-04-04T01:07:34.784Z,46.19
2023-04-04T01:10:05.175Z,46.90
2023-04-04T01:12:33.177Z,47.04
2023-04-04T01:15:01.104Z,47.04
2023-04-04T01:17:29.518Z,47.02
2023-04-04T01:20:04.348Z,46.96
2023-04-04T01:22:33.338Z,46.72
2023-04-04T01:25:02.848Z,47.51
2023-04-04T01:27:31.969Z,47.01
2023-04-04T01:29:59.821Z,47.68
2023-04-04T01:32:33.970Z,47.36
2023-04-04T01:35:12.857Z,46.96
2023-04-04T01:37:47.852Z,46.88
2023-04-04T01:40:19.512Z,46.29
2023-04-04T01:42:49.620Z,46.46
2023-04-04T01:45:17.494Z,47.28
2023-04-04T01:47:45.256Z,46.06
2023-04-04T01:50:13.085Z,47.20
2023-04-04T01:52:40.990Z,45.87
2023-04-04T01:55:09.446Z,44.81
2023-04-04T01:57:37.249Z,44.22
2023-04-04T02:00:07.756Z,44.48
2023-04-04T02:02:35.708Z,43.70
2023-04-04T02:05:04.198Z,44.33
2023-04-04T02:07:31.990Z,44.76
2023-04-04T02:09:59.712Z,44.87
2023-04-04T02:12:27.405Z,45.45
2023-04-04T02:14:55.108Z,45.71
2023-04-04T02:17:24.288Z,44.04
2023-04-04T02:19:52.916Z,44.39
2023-04-04T02:22:20.651Z,43.67
2023-04-04T02:24:48.392Z,43.90
2023-04-04T02:27:16.188Z,44.08
2023-04-04T02:29:44.502Z,44.46
2023-04-04T02:32:12.238Z,44.52
2023-04-04T02:34:41.359Z,44.33
2023-04-04T02:37:09.062Z,44.64
2023-04-04T02:39:36.758Z,44.41
2023-04-04T02:42:04.579Z,44.75
2023-04-04T02:44:32.272Z,45.24
2023-04-04T02:46:59.977Z,44.69
2023-04-04T02:49:28.700Z,45.95
2023-04-04T02:51:58.514Z,45.35
2023-04-04T02:54:26.233Z,45.34
2023-04-04T02:56:54.001Z,44.94
2023-04-04T02:59:21.809Z,45.67
2023-04-04T03:01:49.617Z,46.35
2023-04-04T03:04:19.441Z,46.08
2023-04-04T03:06:48.257Z,45.77
2023-04-04T03:09:17.394Z,45.62
2023-04-04T03:11:45.321Z,45.31
2023-04-04T03:14:13.189Z,44.71
2023-04-04T03:16:41.065Z,45.30
2023-04-04T03:19:08.820Z,45.84
2023-04-04T03:21:36.792Z,45.68
2023-04-04T03:24:04.892Z,46.32
2023-04-04T03:26:34.027Z,46.15
2023-04-04T03:29:04.310Z,45.72
2023-04-04T03:31:32.162Z,46.32
2023-04-04T03:34:00.926Z,45.10
2023-04-04T03:36:28.670Z,45.32
2023-04-04T03:38:56.406Z,45.24
2023-04-04T03:41:24.153Z,45.69
2023-04-04T03:43:53.298Z,45.61
2023-04-04T03:46:21.436Z,45.85
2023-04-04T03:48:49.346Z,46.58
2023-04-04T03:51:24.236Z,45.26
2023-04-04T03:53:52.041Z,45.09
2023-04-04T03:56:19.979Z,45.34
2023-04-04T03:58:47.806Z,45.34
2023-04-04T04:01:17.079Z,45.65
2023-04-04T04:03:44.792Z,45.92
2023-04-04T04:06:12.773Z,45.56
2023-04-04T04:08:40.913Z,45.35
2023-04-04T04:11:08.904Z,44.98
2023-04-04T04:13:37.769Z,44.69
2023-04-04T04:16:05.874Z,45.27
2023-04-04T04:18:35.088Z,44.90
2023-04-04T04:21:04.078Z,44.98
2023-04-04T04:23:32.008Z,45.13
2023-04-04T04:25:59.819Z,45.08
2023-04-04T04:28:33.612Z,45.40
2023-04-04T04:31:06.162Z,45.05
2023-04-04T04:33:35.315Z,44.66
2023-04-04T04:36:03.333Z,44.73
2023-04-04T04:38:31.257Z,44.32
2023-04-04T04:40:59.037Z,44.64
2023-04-04T04:43:27.644Z,45.22
2023-04-04T04:45:55.709Z,45.22
2023-04-04T04:48:23.498Z,46.08
2023-04-04T04:50:52.664Z,45.42
2023-04-04T04:53:20.507Z,45.67
2023-04-04T04:55:48.729Z,45.52
2023-04-04T04:58:17.545Z,45.62
2023-04-04T05:00:45.837Z,45.29
2023-04-04T05:03:13.711Z,45.65
2023-04-04T05:05:41.553Z,45.34
2023-04-04T05:08:10.660Z,45.58
2023-04-04T05:11:33.644Z,45.64
2023-04-04T05:14:01.899Z,45.86
2023-04-04T05:16:29.966Z,45.67
2023-04-04T05:18:57.946Z,46.18
2023-04-04T05:21:25.686Z,46.00
2023-04-04T05:23:55.079Z,46.02
2023-04-04T05:26:22.854Z,45.86
2023-04-04T05:28:50.539Z,45.85
2023-04-04T05:31:18.732Z,45.72
2023-04-04T05:33:46.497Z,46.04
2023-04-04T05:36:14.499Z,45.21
2023-04-04T05:38:42.547Z,45.59
2023-04-04T05:41:11.891Z,45.75
2023-04-04T05:43:39.612Z,46.69
2023-04-04T05:46:07.489Z,45.88
2023-04-04T05:48:35.187Z,46.30
2023-04-04T05:51:02.913Z,45.97
2023-04-04T05:53:30.837Z,45.83
2023-04-04T05:55:59.305Z,45.90
2023-04-04T05:58:28.428Z,46.02
2023-04-04T06:00:56.673Z,45.22
2023-04-04T06:03:24.540Z,45.52
2023-04-04T06:05:53.668Z,46.18
2023-04-04T06:08:21.531Z,45.81
2023-04-04T06:10:49.232Z,45.11
2023-04-04T06:13:17.089Z,45.15
2023-04-04T06:15:46.289Z,44.85
2023-04-04T06:18:14.150Z,45.49
2023-04-04T06:20:42.151Z,46.67
2023-04-04T06:23:10.129Z,46.93
2023-04-04T06:25:38.055Z,45.91
2023-04-04T06:28:06.373Z,46.00
2023-04-04T06:30:37.529Z,45.95
2023-04-04T06:33:07.452Z,46.22
2023-04-04T06:35:35.426Z,46.43
2023-04-04T06:38:04.204Z,45.46
2023-04-04T06:40:32.057Z,45.93
2023-04-04T06:42:59.980Z,45.66
2023-04-04T06:45:28.491Z,45.37
2023-04-04T06:47:56.461Z,46.07
2023-04-04T06:50:25.643Z,45.88
2023-04-04T06:52:53.662Z,45.62
2023-04-04T06:55:22.625Z,45.51
2023-04-04T06:57:50.326Z,44.75
2023-04-04T07:00:18.690Z,44.57
2023-04-04T07:02:46.901Z,44.58
2023-04-04T07:05:17.814Z,45.42
2023-04-04T07:07:47.585Z,45.64
2023-04-04T07:10:15.506Z,46.27
2023-04-04T07:12:43.511Z,46.32
2023-04-04T07:15:12.629Z,46.98
2023-04-04T07:17:41.127Z,45.81
2023-04-04T07:20:10.066Z,46.27
2023-04-04T07:22:38.671Z,45.29
2023-04-04T07:25:09.547Z,44.90
2023-04-04T07:27:37.504Z,46.49
2023-04-04T07:30:05.735Z,47.13
2023-04-04T07:32:33.484Z,48.32
2023-04-04T07:35:01.236Z,47.97
2023-04-04T07:37:28.971Z,47.12
2023-04-04T07:39:56.894Z,47.25
2023-04-04T07:42:26.583Z,46.44
2023-04-04T07:44:54.452Z,46.48
2023-04-04T07:47:22.522Z,46.45
2023-04-04T07:49:50.239Z,45.58
2023-04-04T07:52:17.964Z,44.73
2023-04-04T07:54:47.222Z,44.22
2023-04-04T07:57:14.917Z,43.56
2023-04-04T07:59:44.660Z,44.46
2023-04-04T08:02:12.415Z,43.56
2023-04-04T08:04:40.176Z,42.94
2023-04-04T08:07:07.888Z,42.60
2023-04-04T08:09:36.460Z,42.48
2023-04-04T08:12:05.599Z,42.27
2023-04-04T08:14:33.793Z,42.27
2023-04-04T08:17:03.071Z,41.89
2023-04-04T08:19:30.790Z,42.03
2023-04-04T08:21:58.551Z,41.66
2023-04-04T08:24:27.752Z,41.41
2023-04-04T08:27:04.475Z,41.15
2023-04-04T08:29:34.353Z,41.10
2023-04-04T08:32:03.547Z,41.38
2023-04-04T08:34:31.253Z,40.67
2023-04-04T08:36:59.942Z,39.30
2023-04-04T08:39:28.147Z,38.27
2023-04-04T08:42:03.149Z,38.91
2023-04-04T08:44:31.944Z,38.35
2023-04-04T08:47:01.125Z,37.98
2023-04-04T08:49:33.828Z,38.68
2023-04-04T08:52:03.863Z,38.62
2023-04-04T08:54:32.907Z,39.32
2023-04-04T08:57:00.880Z,38.01
2023-04-04T08:59:28.857Z,38.33
2023-04-04T09:02:02.415Z,38.31
2023-04-04T09:04:32.369Z,38.42
2023-04-04T09:07:03.491Z,38.93
2023-04-04T09:09:32.878Z,38.23
2023-04-04T09:12:02.471Z,38.03
2023-04-04T09:14:31.880Z,38.58
2023-04-04T09:16:59.695Z,38.62
2023-04-04T09:19:27.631Z,39.58
2023-04-04T09:21:56.826Z,39.68
2023-04-04T09:24:24.565Z,39.26
2023-04-04T09:26:54.228Z,38.45
2023-04-04T09:29:22.784Z,37.86
2023-04-04T09:31:51.664Z,39.06
2023-04-04T09:34:21.225Z,38.63
2023-04-04T09:36:49.291Z,37.85
2023-04-04T09:39:20.867Z,36.48
2023-04-04T09:41:49.337Z,38.55
2023-04-04T09:44:18.182Z,37.84
2023-04-04T09:46:46.325Z,37.25
2023-04-04T09:49:21.357Z,36.63
2023-04-04T09:51:54.901Z,37.26
2023-04-04T09:54:29.736Z,37.27
2023-04-04T09:56:58.209Z,36.15
2023-04-04T09:59:26.087Z,36.46
2023-04-04T10:01:55.997Z,37.25
2023-04-04T10:04:26.973Z,37.79
2023-04-04T10:06:55.794Z,36.15
2023-04-04T10:09:24.960Z,37.50
2023-04-04T10:12:08.689Z,37.50
2023-04-04T10:14:36.488Z,37.25
2023-04-04T10:17:10.467Z,35.97
2023-04-04T10:19:39.475Z,36.79
2023-04-04T10:22:07.421Z,36.25
2023-04-04T10:24:36.736Z,35.92
2023-04-04T10:27:04.637Z,37.52
2023-04-04T10:29:32.448Z,36.96
2023-04-04T10:32:06.228Z,36.64
2023-04-04T10:34:40.340Z,36.95
2023-04-04T10:37:13.641Z,36.96
2023-04-04T10:39:46.011Z,36.86
2023-04-04T10:42:16.733Z,36.18
2023-04-04T10:44:46.911Z,35.91
2023-04-04T10:47:18.100Z,37.42
2023-04-04T10:49:47.091Z,37.33
2023-04-04T10:52:16.890Z,36.56
2023-04-04T10:54:46.526Z,35.67
2023-04-04T10:57:15.341Z,37.35
2023-04-04T10:59:59.118Z,36.38
2023-04-04T11:02:45.481Z,36.60
2023-04-04T11:05:13.861Z,35.87
2023-04-04T11:07:43.162Z,36.67
2023-04-04T11:10:18.151Z,36.27
2023-04-04T11:12:47.618Z,36.75
2023-04-04T11:15:16.425Z,35.88
2023-04-04T11:17:52.932Z,35.61
2023-04-04T11:20:22.513Z,36.50
2023-04-04T11:22:51.566Z,36.05
2023-04-04T11:25:50.626Z,35.83
2023-04-04T11:28:29.146Z,35.78
2023-04-04T11:31:29.362Z,35.01
2023-04-04T11:34:03.817Z,34.68
2023-04-04T11:36:51.986Z,35.98
2023-04-04T11:39:30.458Z,36.62
2023-04-04T11:42:04.537Z,35.36
2023-04-04T11:44:33.612Z,34.79
2023-04-04T11:47:05.218Z,36.66
2023-04-04T11:49:37.122Z,34.81
2023-04-04T11:52:06.536Z,34.83
2023-04-04T11:54:34.877Z,36.07
2023-04-04T11:57:04.363Z,35.98
2023-04-04T11:59:32.476Z,35.53
2023-04-04T12:02:02.856Z,33.94
2023-04-04T12:04:30.765Z,34.47
2023-04-04T12:06:58.600Z,35.18
2023-04-04T12:09:28.339Z,34.89
2023-04-04T12:11:57.008Z,35.04
2023-04-04T12:14:27.187Z,35.56
2023-04-04T12:16:56.622Z,35.58
2023-04-04T12:19:25.000Z,34.98
2023-04-04T12:21:53.948Z,34.75
2023-04-04T12:24:22.070Z,34.13
2023-04-04T12:26:51.622Z,35.68
2023-04-04T12:29:23.227Z,34.46
2023-04-04T12:31:53.804Z,33.79
2023-04-04T12:34:24.316Z,33.30
2023-04-04T12:36:54.066Z,35.01
2023-04-04T12:39:23.553Z,34.20
2023-04-04T12:41:57.350Z,32.96
2023-04-04T12:44:30.768Z,32.41
2023-04-04T12:47:01.306Z,34.10
2023-04-04T12:49:31.266Z,34.70
2023-04-04T12:52:03.805Z,31.08
2023-04-04T12:54:34.309Z,31.18
2023-04-04T12:57:05.678Z,33.20
2023-04-04T12:59:34.828Z,34.26
2023-04-04T13:02:08.776Z,34.19
2023-04-04T13:04:37.827Z,34.12
2023-04-04T13:07:05.855Z,32.39
2023-04-04T13:09:35.747Z,32.06
2023-04-04T13:12:08.498Z,32.65
2023-04-04T13:15:01.279Z,32.26
2023-04-04T13:17:43.420Z,31.85
2023-04-04T13:20:11.951Z,31.69
2023-04-04T13:22:40.401Z,32.69
2023-04-04T13:25:10.198Z,32.43
2023-04-04T13:27:38.917Z,33.36
2023-04-04T13:30:11.006Z,32.34
2023-04-04T13:32:39.299Z,32.26
2023-04-04T13:35:09.651Z,32.49
2023-04-04T13:37:37.326Z,30.70
2023-04-04T13:40:05.864Z,32.05
2023-04-04T13:42:34.033Z,32.05
2023-04-04T13:45:01.745Z,31.51
2023-04-04T13:47:29.537Z,31.43
2023-04-04T13:49:57.320Z,30.62
2023-04-04T13:52:26.580Z,32.13
2023-04-04T13:54:54.275Z,31.15
2023-04-04T13:57:22.205Z,32.00
2023-04-04T13:59:50.126Z,31.61
2023-04-04T14:02:17.910Z,31.41
2023-04-04T14:04:45.663Z,33.42
2023-04-04T14:07:13.402Z,32.21
2023-04-04T14:09:42.757Z,30.98
2023-04-04T14:12:10.472Z,31.99
2023-04-04T14:14:38.317Z,30.60
2023-04-04T14:17:06.360Z,31.32
2023-04-04T14:19:34.091Z,30.11
2023-04-04T14:22:02.206Z,31.38
2023-04-04T14:24:29.975Z,31.17
2023-04-04T14:26:59.070Z,31.70
2023-04-04T14:29:26.830Z,31.56
2023-04-04T14:31:55.672Z,31.95
2023-04-04T14:34:26.509Z,33.36
2023-04-04T14:36:54.366Z,31.98
2023-04-04T14:39:22.105Z,29.90
2023-04-04T14:41:49.807Z,28.66
2023-04-04T14:44:20.543Z,31.28
2023-04-04T14:46:48.327Z,30.94
2023-04-04T14:49:16.402Z,30.70
2023-04-04T14:51:44.148Z,28.92
2023-04-04T14:54:11.902Z,30.14
2023-04-04T14:56:39.631Z,30.65
2023-04-04T14:59:08.148Z,30.16
2023-04-04T15:01:37.365Z,31.08
2023-04-04T15:04:07.089Z,30.32
2023-04-04T15:06:37.820Z,32.25
2023-04-04T15:09:06.702Z,31.81
2023-04-04T15:11:35.344Z,31.76
2023-04-04T15:14:03.149Z,31.51
2023-04-04T15:16:33.113Z,32.01
2023-04-04T15:19:02.565Z,32.21
2023-04-04T15:21:31.617Z,33.69
2023-04-04T15:23:59.337Z,31.91
2023-04-04T15:26:27.054Z,31.45
2023-04-04T15:28:54.888Z,32.69
2023-04-04T15:31:22.941Z,31.17
2023-04-04T15:33:50.686Z,32.66
2023-04-04T15:36:20.040Z,32.49
2023-04-04T15:38:47.768Z,31.17
2023-04-04T15:41:15.519Z,32.64
2023-04-04T15:43:43.317Z,32.89
2023-04-04T15:46:11.161Z,32.77
2023-04-04T15:48:38.918Z,32.01
2023-04-04T15:51:07.231Z,32.42
2023-04-04T15:53:36.735Z,32.61
2023-04-04T15:56:04.474Z,31.30
2023-04-04T15:58:32.236Z,30.67
2023-04-04T16:00:59.987Z,32.09
2023-04-04T16:03:27.948Z,32.64
2023-04-04T16:05:55.826Z,32.87
2023-04-04T16:08:23.623Z,32.13
2023-04-04T16:10:52.855Z,32.14
2023-04-04T16:13:20.619Z,32.20
2023-04-04T16:15:48.365Z,31.61
2023-04-04T16:18:16.064Z,32.74
2023-04-04T16:20:43.852Z,32.60
2023-04-04T16:23:11.600Z,31.95
2023-04-04T16:25:39.247Z,31.37
2023-04-04T16:28:08.433Z,32.53
2023-04-04T16:30:36.491Z,31.32
2023-04-04T16:33:04.469Z,31.45
2023-04-04T16:35:32.863Z,30.96
2023-04-04T16:38:00.616Z,30.74
2023-04-04T16:40:28.312Z,30.81
2023-04-04T16:42:56.205Z,30.86
2023-04-04T16:45:25.528Z,31.65
2023-04-04T16:47:53.309Z,32.18
2023-04-04T16:50:21.314Z,32.51
2023-04-04T16:52:49.088Z,31.66
2023-04-04T16:55:16.864Z,31.59
2023-04-04T16:57:44.567Z,31.76
2023-04-04T17:00:14.337Z,32.20
2023-04-04T17:02:45.479Z,32.08
2023-04-04T17:05:13.584Z,31.63
2023-04-04T17:07:41.781Z,32.06
2023-04-04T17:10:10.756Z,31.25
2023-04-04T17:12:39.317Z,31.33
2023-04-04T17:15:07.871Z,32.27
2023-04-04T17:17:35.791Z,32.68
2023-04-04T17:20:05.541Z,32.89
2023-04-04T17:22:33.342Z,32.92
2023-04-04T17:25:01.075Z,33.01
2023-04-04T17:27:28.749Z,32.88
2023-04-04T17:29:56.466Z,32.66
2023-04-04T17:32:24.171Z,32.88
2023-04-04T17:34:51.900Z,32.40
2023-04-04T17:37:21.037Z,33.41
2023-04-04T17:39:48.798Z,32.95
2023-04-04T17:42:16.759Z,33.23
2023-04-04T17:44:44.471Z,33.20
2023-04-04T17:47:12.731Z,33.01
2023-04-04T17:49:40.474Z,33.46
2023-04-04T17:52:08.810Z,33.81
2023-04-04T17:54:38.377Z,33.52
2023-04-04T17:57:07.228Z,33.60
2023-04-04T17:59:35.025Z,33.94
2023-04-04T18:02:03.096Z,33.69
2023-04-04T18:04:30.832Z,34.40
2023-04-04T18:06:59.160Z,34.86
2023-04-04T18:09:28.919Z,34.38
2023-04-04T18:11:58.212Z,34.88
2023-04-04T18:14:26.308Z,35.24
2023-04-04T18:16:54.163Z,36.10
2023-04-04T18:19:21.850Z,36.01
2023-04-04T18:21:51.249Z,37.38
2023-04-04T18:24:19.063Z,37.69
2023-04-04T18:26:46.776Z,37.79
2023-04-04T18:29:16.059Z,37.13
2023-04-04T18:31:43.810Z,37.98
2023-04-04T18:34:15.067Z,38.21
2023-04-04T18:36:42.831Z,38.16
2023-04-04T18:39:11.102Z,38.27
2023-04-04T18:41:39.016Z,39.04
2023-04-04T18:44:07.402Z,39.43
2023-04-04T18:46:38.170Z,38.47
2023-04-04T18:49:06.084Z,39.01
2023-04-04T18:51:34.372Z,39.47
2023-04-04T18:54:02.134Z,39.60
2023-04-04T18:56:29.856Z,39.99
2023-04-04T18:58:57.595Z,39.35
2023-04-04T19:01:25.488Z,40.27
2023-04-04T19:03:55.424Z,39.97
2023-04-04T19:06:27.361Z,40.68
2023-04-04T19:08:58.478Z,40.94
2023-04-04T19:11:26.277Z,40.85
2023-04-04T19:13:54.009Z,41.04
2023-04-04T19:16:22.521Z,41.31
2023-04-04T19:18:50.255Z,41.09
2023-04-04T19:21:19.417Z,41.52
2023-04-04T19:23:48.311Z,41.81
2023-04-04T19:26:18.020Z,41.59
2023-04-04T19:28:47.215Z,41.73
2023-04-04T19:31:21.633Z,42.06
2023-04-04T19:33:49.817Z,43.54
2023-04-04T19:36:18.918Z,42.21
2023-04-04T19:38:48.372Z,42.53
2023-04-04T19:41:33.800Z,43.09
2023-04-04T19:44:01.826Z,42.08
2023-04-04T19:46:31.698Z,42.89
2023-04-04T19:49:00.107Z,42.46
2023-04-04T19:51:43.565Z,42.99
2023-04-04T19:54:17.724Z,43.45
2023-04-04T19:56:47.550Z,43.20
2023-04-04T19:59:53.008Z,43.93
2023-04-04T20:02:53.891Z,44.17
2023-04-04T20:06:03.271Z,43.58
2023-04-04T20:08:39.002Z,43.27
2023-04-04T20:11:07.772Z,42.85
2023-04-04T20:13:37.240Z,42.56
2023-04-04T20:16:10.976Z,43.47
2023-04-04T20:18:40.051Z,43.45
2023-04-04T20:21:12.667Z,43.83
2023-04-04T20:23:52.499Z,44.49
2023-04-04T20:26:42.660Z,44.08
2023-04-04T20:29:12.415Z,45.27
2023-04-04T20:31:43.951Z,45.43
2023-04-04T20:34:31.182Z,44.74
2023-04-04T20:36:58.949Z,46.79
2023-04-04T20:39:44.903Z,45.17
2023-04-04T20:42:40.169Z,46.42
2023-04-04T20:45:29.418Z,45.36
2023-04-04T20:47:57.892Z,45.88
2023-04-04T20:50:46.206Z,46.73
2023-04-04T20:53:21.156Z,45.50
2023-04-04T20:55:51.446Z,45.32
2023-04-04T20:58:28.459Z,46.36
2023-04-04T21:00:57.990Z,45.76
2023-04-04T21:03:36.051Z,47.37
2023-04-04T21:06:11.487Z,46.55
2023-04-04T21:08:49.385Z,45.95
2023-04-04T21:11:25.073Z,46.57
2023-04-04T21:13:52.852Z,45.91
2023-04-04T21:16:24.511Z,45.31
2023-04-04T21:18:57.907Z,46.09
2023-04-04T21:21:26.554Z,46.10
2023-04-04T21:23:56.145Z,45.22
2023-04-04T21:26:30.269Z,44.89
2023-04-04T21:28:59.272Z,44.78
2023-04-04T21:31:30.693Z,44.38
2023-04-04T21:33:59.436Z,43.72
2023-04-04T21:36:29.658Z,43.80
2023-04-04T21:38:59.329Z,43.65
2023-04-04T21:41:29.912Z,43.93
2023-04-04T21:43:59.503Z,43.31
2023-04-04T21:46:28.748Z,43.52
2023-04-04T21:48:57.263Z,44.19
2023-04-04T21:51:24.977Z,43.60
2023-04-04T21:53:52.740Z,44.14
2023-04-04T21:56:21.176Z,43.83
2023-04-04T21:58:50.995Z,44.08
2023-04-04T22:01:18.692Z,43.95
2023-04-04T22:03:46.451Z,42.99
2023-04-04T22:06:14.381Z,44.55
2023-04-04T22:08:42.343Z,43.78
2023-04-04T22:11:13.439Z,44.31
2023-04-04T22:13:46.800Z,44.28
2023-04-04T22:16:17.590Z,45.06
2023-04-04T22:18:47.716Z,45.20
2023-04-04T22:21:16.719Z,45.20
2023-04-04T22:23:44.759Z,45.43
2023-04-04T22:26:15.242Z,45.05
2023-04-04T22:28:45.682Z,45.16
2023-04-04T22:31:13.802Z,45.77
2023-04-04T22:33:43.456Z,44.95
2023-04-04T22:36:11.309Z,45.09
2023-04-04T22:38:39.462Z,44.76
2023-04-04T22:41:07.390Z,44.88
2023-04-04T22:43:35.330Z,45.11
2023-04-04T22:46:03.095Z,45.38
2023-04-04T22:48:30.917Z,45.12
2023-04-04T22:51:02.754Z,45.60
2023-04-04T22:53:30.529Z,45.05
2023-04-04T22:56:00.649Z,45.15
2023-04-04T22:58:28.395Z,45.57
2023-04-04T23:00:56.141Z,44.65
2023-04-04T23:03:23.858Z,44.80
2023-04-04T23:05:51.615Z,45.28
2023-04-04T23:08:20.755Z,45.72
2023-04-04T23:10:48.436Z,45.50
2023-04-04T23:13:16.215Z,46.25
2023-04-04T23:15:45.038Z,45.81
2023-04-04T23:18:13.470Z,45.06
2023-04-04T23:20:41.902Z,45.56
2023-04-04T23:23:09.833Z,45.85
2023-04-04T23:25:38.899Z,45.92
2023-04-04T23:28:06.581Z,45.54
2023-04-04T23:30:34.322Z,46.04
2023-04-04T23:33:02.099Z,46.28
2023-04-04T23:35:29.886Z,46.28
2023-04-04T23:37:57.577Z,45.44
2023-04-04T23:40:25.541Z,45.88
2023-04-04T23:42:54.594Z,46.39
2023-04-04T23:47:50.189Z,45.95
2023-04-04T23:50:19.100Z,45.16
2023-04-04T23:52:46.869Z,46.16
2023-04-04T23:55:16.964Z,45.81
2023-04-04T23:57:44.985Z,45.25
